sensor_id;sensor_type;location;lat;lon;timestamp;temperature;humidity
77052;SHT30;65980;44.898;8.602;2024-01-15T00:01:17;3.03;86.83
77052;SHT30;65980;44.898;8.602;2024-01-15T00:04:22;2.82;87.76
77052;SHT30;65980;44.898;8.602;2024-01-15T00:07:26;2.92;87.93
77052;SHT30;65980;44.898;8.602;2024-01-15T00:10:30;2.88;87.65
77052;SHT30;65980;44.898;8.602;2024-01-15T00:13:34;2.92;87.34
77052;SHT30;65980;44.898;8.602;2024-01-15T00:16:40;3.00;87.34
77052;SHT30;65980;44.898;8.602;2024-01-15T00:19:45;3.16;87.03
77052;SHT30;65980;44.898;8.602;2024-01-15T00:22:50;3.24;86.72
77052;SHT30;65980;44.898;8.602;2024-01-15T00:25:55;3.44;86.56
77052;SHT30;65980;44.898;8.602;2024-01-15T00:28:59;3.61;85.96
77052;SHT30;65980;44.898;8.602;2024-01-15T00:32:04;3.76;85.60
77052;SHT30;65980;44.898;8.602;2024-01-15T00:35:09;3.42;86.19
77052;SHT30;65980;44.898;8.602;2024-01-15T00:38:12;3.54;85.98
77052;SHT30;65980;44.898;8.602;2024-01-15T00:41:17;3.71;84.80
77052;SHT30;65980;44.898;8.602;2024-01-15T00:44:21;3.54;84.77
77052;SHT30;65980;44.898;8.602;2024-01-15T00:47:26;3.48;85.02
77052;SHT30;65980;44.898;8.602;2024-01-15T00:50:30;3.69;84.81
77052;SHT30;65980;44.898;8.602;2024-01-15T00:53:35;3.81;84.08
77052;SHT30;65980;44.898;8.602;2024-01-15T00:56:39;3.71;84.00
77052;SHT30;65980;44.898;8.602;2024-01-15T00:59:45;3.67;84.32
77052;SHT30;65980;44.898;8.602;2024-01-15T01:02:49;3.71;84.17
77052;SHT30;65980;44.898;8.602;2024-01-15T01:05:54;3.65;84.41
77052;SHT30;65980;44.898;8.602;2024-01-15T01:08:58;3.67;84.28
77052;SHT30;65980;44.898;8.602;2024-01-15T01:12:03;3.68;84.04
77052;SHT30;65980;44.898;8.602;2024-01-15T01:15:07;3.67;83.97
77052;SHT30;65980;44.898;8.602;2024-01-15T01:18:11;3.67;84.25
77052;SHT30;65980;44.898;8.602;2024-01-15T01:21:16;3.57;84.13
77052;SHT30;65980;44.898;8.602;2024-01-15T01:24:21;3.45;84.36
77052;SHT30;65980;44.898;8.602;2024-01-15T01:27:24;3.47;84.60
77052;SHT30;65980;44.898;8.602;2024-01-15T01:30:29;3.51;84.50
77052;SHT30;65980;44.898;8.602;2024-01-15T01:33:33;3.55;84.57
77052;SHT30;65980;44.898;8.602;2024-01-15T01:36:38;3.52;84.54
77052;SHT30;65980;44.898;8.602;2024-01-15T01:39:43;3.06;86.04
77052;SHT30;65980;44.898;8.602;2024-01-15T01:42:48;2.96;86.79
77052;SHT30;65980;44.898;8.602;2024-01-15T01:45:56;2.89;86.86
77052;SHT30;65980;44.898;8.602;2024-01-15T01:49:01;3.07;86.07
77052;SHT30;65980;44.898;8.602;2024-01-15T01:52:10;3.14;85.96
77052;SHT30;65980;44.898;8.602;2024-01-15T01:55:15;3.09;86.30
77052;SHT30;65980;44.898;8.602;2024-01-15T01:58:18;3.35;85.57
77052;SHT30;65980;44.898;8.602;2024-01-15T02:01:23;3.35;84.83
77052;SHT30;65980;44.898;8.602;2024-01-15T02:04:26;3.32;84.95
77052;SHT30;65980;44.898;8.602;2024-01-15T02:07:34;3.20;85.42
77052;SHT30;65980;44.898;8.602;2024-01-15T02:10:40;3.04;86.11
77052;SHT30;65980;44.898;8.602;2024-01-15T02:13:44;2.96;86.95
77052;SHT30;65980;44.898;8.602;2024-01-15T02:16:48;2.81;87.54
77052;SHT30;65980;44.898;8.602;2024-01-15T02:19:53;3.00;86.93
77052;SHT30;65980;44.898;8.602;2024-01-15T02:26:14;3.35;85.83
77052;SHT30;65980;44.898;8.602;2024-01-15T02:29:19;3.30;85.36
77052;SHT30;65980;44.898;8.602;2024-01-15T02:32:23;3.32;85.32
77052;SHT30;65980;44.898;8.602;2024-01-15T02:35:27;3.23;85.81
77052;SHT30;65980;44.898;8.602;2024-01-15T02:38:31;3.13;85.99
77052;SHT30;65980;44.898;8.602;2024-01-15T02:41:36;3.00;86.66
77052;SHT30;65980;44.898;8.602;2024-01-15T02:44:40;3.06;86.59
77052;SHT30;65980;44.898;8.602;2024-01-15T02:47:44;2.81;87.37
77052;SHT30;65980;44.898;8.602;2024-01-15T02:50:49;2.97;87.21
77052;SHT30;65980;44.898;8.602;2024-01-15T02:53:53;3.03;86.98
77052;SHT30;65980;44.898;8.602;2024-01-15T02:56:57;3.06;86.84
77052;SHT30;65980;44.898;8.602;2024-01-15T03:00:02;3.37;85.76
77052;SHT30;65980;44.898;8.602;2024-01-15T03:03:07;3.52;85.51
77052;SHT30;65980;44.898;8.602;2024-01-15T03:06:12;3.68;84.37
77052;SHT30;65980;44.898;8.602;2024-01-15T03:09:16;3.64;84.16
77052;SHT30;65980;44.898;8.602;2024-01-15T03:12:20;3.48;85.13
77052;SHT30;65980;44.898;8.602;2024-01-15T03:15:25;3.24;85.91
77052;SHT30;65980;44.898;8.602;2024-01-15T03:18:28;3.06;86.79
77052;SHT30;65980;44.898;8.602;2024-01-15T03:21:32;2.91;87.66
77052;SHT30;65980;44.898;8.602;2024-01-15T03:24:36;3.00;87.87
77052;SHT30;65980;44.898;8.602;2024-01-15T03:27:40;2.95;87.84
77052;SHT30;65980;44.898;8.602;2024-01-15T03:30:44;3.00;87.59
77052;SHT30;65980;44.898;8.602;2024-01-15T03:33:49;2.86;87.69
77052;SHT30;65980;44.898;8.602;2024-01-15T03:36:54;2.89;87.68
77052;SHT30;65980;44.898;8.602;2024-01-15T03:39:58;2.89;87.93
77052;SHT30;65980;44.898;8.602;2024-01-15T03:43:03;3.07;87.39
77052;SHT30;65980;44.898;8.602;2024-01-15T03:46:07;3.06;87.17
77052;SHT30;65980;44.898;8.602;2024-01-15T03:49:10;2.93;87.39
77052;SHT30;65980;44.898;8.602;2024-01-15T03:52:15;2.97;87.64
77052;SHT30;65980;44.898;8.602;2024-01-15T03:55:19;3.03;87.87
77052;SHT30;65980;44.898;8.602;2024-01-15T03:58:23;3.23;87.68
77052;SHT30;65980;44.898;8.602;2024-01-15T04:01:27;3.40;86.93
77052;SHT30;65980;44.898;8.602;2024-01-15T04:04:31;3.38;86.73
77052;SHT30;65980;44.898;8.602;2024-01-15T04:07:35;3.55;86.10
77052;SHT30;65980;44.898;8.602;2024-01-15T04:10:40;3.59;85.77
77052;SHT30;65980;44.898;8.602;2024-01-15T04:13:44;3.32;86.32
77052;SHT30;65980;44.898;8.602;2024-01-15T04:16:49;3.19;87.55
77052;SHT30;65980;44.898;8.602;2024-01-15T04:19:54;3.13;87.56
77052;SHT30;65980;44.898;8.602;2024-01-15T04:22:58;3.23;87.72
77052;SHT30;65980;44.898;8.602;2024-01-15T04:26:02;3.32;86.82
77052;SHT30;65980;44.898;8.602;2024-01-15T04:29:06;3.52;85.98
77052;SHT30;65980;44.898;8.602;2024-01-15T04:32:11;3.45;85.96
77052;SHT30;65980;44.898;8.602;2024-01-15T04:35:16;3.20;87.09
77052;SHT30;65980;44.898;8.602;2024-01-15T04:38:21;3.37;86.47
77052;SHT30;65980;44.898;8.602;2024-01-15T04:41:26;3.41;86.47
77052;SHT30;65980;44.898;8.602;2024-01-15T04:44:31;3.17;87.24
77052;SHT30;65980;44.898;8.602;2024-01-15T04:47:35;3.20;87.39
77052;SHT30;65980;44.898;8.602;2024-01-15T04:50:40;3.34;87.11
77052;SHT30;65980;44.898;8.602;2024-01-15T04:53:44;3.40;86.67
77052;SHT30;65980;44.898;8.602;2024-01-15T04:56:48;3.19;87.45
77052;SHT30;65980;44.898;8.602;2024-01-15T04:59:52;3.28;87.56
77052;SHT30;65980;44.898;8.602;2024-01-15T05:02:56;3.48;86.95
77052;SHT30;65980;44.898;8.602;2024-01-15T05:06:00;3.64;86.62
77052;SHT30;65980;44.898;8.602;2024-01-15T05:09:04;3.76;85.50
77052;SHT30;65980;44.898;8.602;2024-01-15T05:12:08;3.81;85.35
77052;SHT30;65980;44.898;8.602;2024-01-15T05:15:13;3.93;84.68
77052;SHT30;65980;44.898;8.602;2024-01-15T05:18:18;3.93;84.96
77052;SHT30;65980;44.898;8.602;2024-01-15T05:21:22;4.06;84.09
77052;SHT30;65980;44.898;8.602;2024-01-15T05:24:26;4.10;83.84
77052;SHT30;65980;44.898;8.602;2024-01-15T05:27:30;4.18;83.59
77052;SHT30;65980;44.898;8.602;2024-01-15T05:30:35;4.04;83.62
77052;SHT30;65980;44.898;8.602;2024-01-15T05:33:39;3.96;83.38
77052;SHT30;65980;44.898;8.602;2024-01-15T05:36:44;4.10;83.39
77052;SHT30;65980;44.898;8.602;2024-01-15T05:39:52;3.76;84.64
77052;SHT30;65980;44.898;8.602;2024-01-15T05:42:56;3.86;84.10
77052;SHT30;65980;44.898;8.602;2024-01-15T05:46:00;3.76;84.42
77052;SHT30;65980;44.898;8.602;2024-01-15T05:49:04;3.86;84.51
77052;SHT30;65980;44.898;8.602;2024-01-15T05:52:08;4.03;84.07
77052;SHT30;65980;44.898;8.602;2024-01-15T05:55:12;3.86;84.26
77052;SHT30;65980;44.898;8.602;2024-01-15T05:58:16;3.83;84.68
77052;SHT30;65980;44.898;8.602;2024-01-15T06:01:20;3.64;84.93
77052;SHT30;65980;44.898;8.602;2024-01-15T06:04:24;3.45;86.01
77052;SHT30;65980;44.898;8.602;2024-01-15T06:07:29;3.32;86.63
77052;SHT30;65980;44.898;8.602;2024-01-15T06:10:33;3.44;86.62
77052;SHT30;65980;44.898;8.602;2024-01-15T06:13:38;3.62;86.30
77052;SHT30;65980;44.898;8.602;2024-01-15T06:16:43;3.89;85.55
77052;SHT30;65980;44.898;8.602;2024-01-15T06:19:48;3.65;85.12
77052;SHT30;65980;44.898;8.602;2024-01-15T06:22:55;3.55;86.39
77052;SHT30;65980;44.898;8.602;2024-01-15T06:26:00;3.71;85.23
77052;SHT30;65980;44.898;8.602;2024-01-15T06:29:07;3.86;84.85
77052;SHT30;65980;44.898;8.602;2024-01-15T06:32:11;4.00;84.32
77052;SHT30;65980;44.898;8.602;2024-01-15T06:35:15;4.00;84.18
77052;SHT30;65980;44.898;8.602;2024-01-15T06:38:23;4.13;83.96
77052;SHT30;65980;44.898;8.602;2024-01-15T06:41:30;3.95;84.39
77052;SHT30;65980;44.898;8.602;2024-01-15T06:44:34;4.00;84.04
77052;SHT30;65980;44.898;8.602;2024-01-15T06:47:39;3.99;83.86
77052;SHT30;65980;44.898;8.602;2024-01-15T06:50:46;4.04;83.57
77052;SHT30;65980;44.898;8.602;2024-01-15T06:53:50;4.13;83.62
77052;SHT30;65980;44.898;8.602;2024-01-15T06:56:58;4.23;83.29
77052;SHT30;65980;44.898;8.602;2024-01-15T07:05:40;3.59;85.33
77052;SHT30;65980;44.898;8.602;2024-01-15T07:08:53;3.58;85.83
77052;SHT30;65980;44.898;8.602;2024-01-15T07:18:12;3.71;85.32
77052;SHT30;65980;44.898;8.602;2024-01-15T07:31:48;3.54;85.33
77052;SHT30;65980;44.898;8.602;2024-01-15T07:35:16;3.65;85.64
77052;SHT30;65980;44.898;8.602;2024-01-15T07:43:54;3.85;84.44
77052;SHT30;65980;44.898;8.602;2024-01-15T07:46:58;3.90;84.36
77052;SHT30;65980;44.898;8.602;2024-01-15T07:50:31;3.90;83.93
77052;SHT30;65980;44.898;8.602;2024-01-15T07:53:39;3.92;84.23
77052;SHT30;65980;44.898;8.602;2024-01-15T07:57:05;3.92;83.81
77052;SHT30;65980;44.898;8.602;2024-01-15T08:00:09;3.79;83.72
77052;SHT30;65980;44.898;8.602;2024-01-15T08:03:19;3.57;84.85
77052;SHT30;65980;44.898;8.602;2024-01-15T08:06:28;3.61;84.82
77052;SHT30;65980;44.898;8.602;2024-01-15T08:09:37;3.71;84.73
77052;SHT30;65980;44.898;8.602;2024-01-15T08:12:41;3.92;83.93
77052;SHT30;65980;44.898;8.602;2024-01-15T08:15:46;4.06;83.35
77052;SHT30;65980;44.898;8.602;2024-01-15T08:18:51;4.20;83.34
77052;SHT30;65980;44.898;8.602;2024-01-15T08:21:56;4.21;82.79
77052;SHT30;65980;44.898;8.602;2024-01-15T08:25:05;4.33;82.75
77052;SHT30;65980;44.898;8.602;2024-01-15T08:28:13;4.59;81.99
77052;SHT30;65980;44.898;8.602;2024-01-15T08:31:20;4.69;81.18
77052;SHT30;65980;44.898;8.602;2024-01-15T08:34:25;4.97;80.80
77052;SHT30;65980;44.898;8.602;2024-01-15T08:37:32;4.73;80.43
77052;SHT30;65980;44.898;8.602;2024-01-15T08:40:54;4.54;80.82
77052;SHT30;65980;44.898;8.602;2024-01-15T08:44:06;4.82;81.11
77052;SHT30;65980;44.898;8.602;2024-01-15T08:47:13;4.89;80.68
77052;SHT30;65980;44.898;8.602;2024-01-15T08:54:09;5.40;79.58
77052;SHT30;65980;44.898;8.602;2024-01-15T08:57:13;5.75;77.39
77052;SHT30;65980;44.898;8.602;2024-01-15T09:00:18;5.80;78.01
77052;SHT30;65980;44.898;8.602;2024-01-15T09:03:23;6.89;73.89
77052;SHT30;65980;44.898;8.602;2024-01-15T09:06:32;6.24;75.79
77052;SHT30;65980;44.898;8.602;2024-01-15T09:09:36;8.03;70.41
77052;SHT30;65980;44.898;8.602;2024-01-15T09:12:41;8.50;67.42
77052;SHT30;65980;44.898;8.602;2024-01-15T09:15:46;9.77;63.30
77052;SHT30;65980;44.898;8.602;2024-01-15T09:18:51;9.70;62.05
77052;SHT30;65980;44.898;8.602;2024-01-15T09:21:54;11.54;56.63
77052;SHT30;65980;44.898;8.602;2024-01-15T09:24:59;10.20;60.22
77052;SHT30;65980;44.898;8.602;2024-01-15T09:28:04;9.52;62.45
77052;SHT30;65980;44.898;8.602;2024-01-15T09:31:09;9.82;61.59
77052;SHT30;65980;44.898;8.602;2024-01-15T09:34:14;9.70;62.57
77052;SHT30;65980;44.898;8.602;2024-01-15T09:37:22;10.72;58.07
77052;SHT30;65980;44.898;8.602;2024-01-15T09:40:46;11.61;56.77
77052;SHT30;65980;44.898;8.602;2024-01-15T09:45:04;11.69;55.56
77052;SHT30;65980;44.898;8.602;2024-01-15T09:48:09;9.93;61.24
77052;SHT30;65980;44.898;8.602;2024-01-15T09:51:14;10.46;59.99
77052;SHT30;65980;44.898;8.602;2024-01-15T09:54:19;10.17;59.78
77052;SHT30;65980;44.898;8.602;2024-01-15T09:57:24;11.91;54.74
77052;SHT30;65980;44.898;8.602;2024-01-15T10:00:29;11.14;55.89
77052;SHT30;65980;44.898;8.602;2024-01-15T10:03:35;9.72;59.42
77052;SHT30;65980;44.898;8.602;2024-01-15T10:06:44;9.39;61.38
77052;SHT30;65980;44.898;8.602;2024-01-15T10:09:50;9.46;61.62
77052;SHT30;65980;44.898;8.602;2024-01-15T10:12:58;9.90;59.06
77052;SHT30;65980;44.898;8.602;2024-01-15T10:16:03;9.76;59.87
77052;SHT30;65980;44.898;8.602;2024-01-15T10:19:09;9.77;58.94
77052;SHT30;65980;44.898;8.602;2024-01-15T10:22:14;9.48;60.66
77052;SHT30;65980;44.898;8.602;2024-01-15T10:25:20;10.20;58.92
77052;SHT30;65980;44.898;8.602;2024-01-15T10:28:50;9.63;61.20
77052;SHT30;65980;44.898;8.602;2024-01-15T10:32:11;9.60;61.44
77052;SHT30;65980;44.898;8.602;2024-01-15T10:35:16;9.38;62.64
77052;SHT30;65980;44.898;8.602;2024-01-15T10:38:20;10.08;62.02
77052;SHT30;65980;44.898;8.602;2024-01-15T10:41:26;10.41;59.67
77052;SHT30;65980;44.898;8.602;2024-01-15T10:44:31;10.10;58.99
77052;SHT30;65980;44.898;8.602;2024-01-15T10:47:36;10.90;57.64
77052;SHT30;65980;44.898;8.602;2024-01-15T10:50:41;10.93;55.03
77052;SHT30;65980;44.898;8.602;2024-01-15T10:53:46;9.87;58.83
77052;SHT30;65980;44.898;8.602;2024-01-15T10:56:50;9.95;59.14
77052;SHT30;65980;44.898;8.602;2024-01-15T10:59:57;10.75;56.91
77052;SHT30;65980;44.898;8.602;2024-01-15T11:03:05;11.14;57.42
77052;SHT30;65980;44.898;8.602;2024-01-15T11:06:19;11.10;56.97
77052;SHT30;65980;44.898;8.602;2024-01-15T11:09:28;11.79;54.98
77052;SHT30;65980;44.898;8.602;2024-01-15T11:12:34;12.56;53.39
77052;SHT30;65980;44.898;8.602;2024-01-15T11:16:01;14.93;47.16
77052;SHT30;65980;44.898;8.602;2024-01-15T11:19:09;14.00;49.07
77052;SHT30;65980;44.898;8.602;2024-01-15T11:25:35;12.28;53.90
77052;SHT30;65980;44.898;8.602;2024-01-15T11:29:46;12.62;52.60
77052;SHT30;65980;44.898;8.602;2024-01-15T11:32:33;13.07;51.05
77052;SHT30;65980;44.898;8.602;2024-01-15T11:35:56;13.01;51.76
77052;SHT30;65980;44.898;8.602;2024-01-15T11:42:35;15.03;46.25
77052;SHT30;65980;44.898;8.602;2024-01-15T11:45:40;12.99;50.72
77052;SHT30;65980;44.898;8.602;2024-01-15T11:48:45;12.89;51.59
77052;SHT30;65980;44.898;8.602;2024-01-15T11:51:53;14.10;49.51
77052;SHT30;65980;44.898;8.602;2024-01-15T11:58:25;14.18;52.26
77052;SHT30;65980;44.898;8.602;2024-01-15T12:01:33;15.86;46.44
77052;SHT30;65980;44.898;8.602;2024-01-15T12:04:39;17.06;43.58
77052;SHT30;65980;44.898;8.602;2024-01-15T12:07:45;16.70;43.57
77052;SHT30;65980;44.898;8.602;2024-01-15T12:10:49;16.11;45.64
77052;SHT30;65980;44.898;8.602;2024-01-15T12:13:54;17.25;41.79
77052;SHT30;65980;44.898;8.602;2024-01-15T12:17:00;18.79;38.32
77052;SHT30;65980;44.898;8.602;2024-01-15T12:20:05;18.52;39.80
77052;SHT30;65980;44.898;8.602;2024-01-15T12:23:10;19.23;37.69
77052;SHT30;65980;44.898;8.602;2024-01-15T12:26:21;16.61;43.18
77052;SHT30;65980;44.898;8.602;2024-01-15T12:29:25;15.69;45.04
77052;SHT30;65980;44.898;8.602;2024-01-15T12:32:30;15.52;45.16
77052;SHT30;65980;44.898;8.602;2024-01-15T12:35:35;15.52;44.81
77052;SHT30;65980;44.898;8.602;2024-01-15T12:38:40;15.63;44.47
77052;SHT30;65980;44.898;8.602;2024-01-15T12:41:54;18.04;38.89
77052;SHT30;65980;44.898;8.602;2024-01-15T12:45:19;16.36;42.59
77052;SHT30;65980;44.898;8.602;2024-01-15T12:48:24;15.79;44.79
77052;SHT30;65980;44.898;8.602;2024-01-15T12:51:29;17.16;42.20
77052;SHT30;65980;44.898;8.602;2024-01-15T12:54:34;17.45;40.88
77052;SHT30;65980;44.898;8.602;2024-01-15T12:57:39;18.21;39.27
77052;SHT30;65980;44.898;8.602;2024-01-15T13:00:43;15.94;44.09
77052;SHT30;65980;44.898;8.602;2024-01-15T13:03:47;15.21;45.25
77052;SHT30;65980;44.898;8.602;2024-01-15T13:06:52;14.73;47.41
77052;SHT30;65980;44.898;8.602;2024-01-15T13:09:56;16.22;44.84
77052;SHT30;65980;44.898;8.602;2024-01-15T13:13:00;18.51;39.97
77052;SHT30;65980;44.898;8.602;2024-01-15T13:16:06;18.90;39.13
77052;SHT30;65980;44.898;8.602;2024-01-15T13:19:10;18.23;40.66
77052;SHT30;65980;44.898;8.602;2024-01-15T13:22:15;19.92;36.82
77052;SHT30;65980;44.898;8.602;2024-01-15T13:25:19;20.18;36.19
77052;SHT30;65980;44.898;8.602;2024-01-15T13:28:25;19.98;36.26
77052;SHT30;65980;44.898;8.602;2024-01-15T13:31:30;19.42;36.69
77052;SHT30;65980;44.898;8.602;2024-01-15T13:34:34;17.94;41.10
77052;SHT30;65980;44.898;8.602;2024-01-15T13:37:41;18.51;40.56
77052;SHT30;65980;44.898;8.602;2024-01-15T13:40:45;17.87;42.46
77052;SHT30;65980;44.898;8.602;2024-01-15T13:43:49;18.58;40.46
77052;SHT30;65980;44.898;8.602;2024-01-15T13:46:55;16.66;43.43
77052;SHT30;65980;44.898;8.602;2024-01-15T13:50:00;16.72;44.29
77052;SHT30;65980;44.898;8.602;2024-01-15T13:53:05;15.90;45.45
77052;SHT30;65980;44.898;8.602;2024-01-15T13:56:10;14.69;47.37
77052;SHT30;65980;44.898;8.602;2024-01-15T13:59:14;14.24;50.10
77052;SHT30;65980;44.898;8.602;2024-01-15T14:02:18;13.61;51.99
77052;SHT30;65980;44.898;8.602;2024-01-15T14:05:24;12.10;56.61
77052;SHT30;65980;44.898;8.602;2024-01-15T14:08:29;11.45;58.63
77052;SHT30;65980;44.898;8.602;2024-01-15T14:11:34;10.93;61.66
77052;SHT30;65980;44.898;8.602;2024-01-15T14:14:39;10.93;60.96
77052;SHT30;65980;44.898;8.602;2024-01-15T14:17:43;10.73;61.61
77052;SHT30;65980;44.898;8.602;2024-01-15T14:20:47;10.59;61.98
77052;SHT30;65980;44.898;8.602;2024-01-15T14:23:52;10.08;65.01
77052;SHT30;65980;44.898;8.602;2024-01-15T14:26:59;10.46;63.47
77052;SHT30;65980;44.898;8.602;2024-01-15T14:30:05;10.08;65.09
77052;SHT30;65980;44.898;8.602;2024-01-15T14:33:11;10.38;64.70
77052;SHT30;65980;44.898;8.602;2024-01-15T14:36:15;10.58;65.08
77052;SHT30;65980;44.898;8.602;2024-01-15T14:39:19;10.18;66.47
77052;SHT30;65980;44.898;8.602;2024-01-15T14:42:23;9.77;67.62
77052;SHT30;65980;44.898;8.602;2024-01-15T14:45:27;9.84;67.42
77052;SHT30;65980;44.898;8.602;2024-01-15T14:48:34;9.80;67.63
77052;SHT30;65980;44.898;8.602;2024-01-15T14:51:38;10.01;67.02
77052;SHT30;65980;44.898;8.602;2024-01-15T14:54:43;9.65;68.19
77052;SHT30;65980;44.898;8.602;2024-01-15T14:57:46;9.59;68.65
77052;SHT30;65980;44.898;8.602;2024-01-15T15:00:51;9.46;69.21
77052;SHT30;65980;44.898;8.602;2024-01-15T15:04:11;9.89;67.65
77052;SHT30;65980;44.898;8.602;2024-01-15T15:07:24;9.98;67.59
77052;SHT30;65980;44.898;8.602;2024-01-15T15:10:28;9.82;67.44
77052;SHT30;65980;44.898;8.602;2024-01-15T15:13:34;10.10;66.74
77052;SHT30;65980;44.898;8.602;2024-01-15T15:16:39;9.75;67.37
77052;SHT30;65980;44.898;8.602;2024-01-15T15:19:43;9.25;69.80
77052;SHT30;65980;44.898;8.602;2024-01-15T15:22:47;9.13;70.50
77052;SHT30;65980;44.898;8.602;2024-01-15T15:25:52;9.05;70.87
77052;SHT30;65980;44.898;8.602;2024-01-15T15:28:56;8.80;71.51
77052;SHT30;65980;44.898;8.602;2024-01-15T15:32:01;8.97;71.13
77052;SHT30;65980;44.898;8.602;2024-01-15T15:35:05;9.22;69.82
77052;SHT30;65980;44.898;8.602;2024-01-15T15:38:10;8.96;71.41
77052;SHT30;65980;44.898;8.602;2024-01-15T15:41:15;9.07;69.99
77052;SHT30;65980;44.898;8.602;2024-01-15T15:44:19;8.96;70.90
77052;SHT30;65980;44.898;8.602;2024-01-15T15:47:24;8.90;71.45
77052;SHT30;65980;44.898;8.602;2024-01-15T15:50:29;9.14;70.45
77052;SHT30;65980;44.898;8.602;2024-01-15T15:53:34;9.27;69.65
77052;SHT30;65980;44.898;8.602;2024-01-15T15:56:38;9.27;68.95
77052;SHT30;65980;44.898;8.602;2024-01-15T15:59:43;9.28;68.86
77052;SHT30;65980;44.898;8.602;2024-01-15T16:02:48;9.28;68.73
77052;SHT30;65980;44.898;8.602;2024-01-15T16:05:53;9.07;69.43
77052;SHT30;65980;44.898;8.602;2024-01-15T16:08:57;9.08;69.21
77052;SHT30;65980;44.898;8.602;2024-01-15T16:12:03;8.84;70.11
77052;SHT30;65980;44.898;8.602;2024-01-15T16:18:26;8.87;70.15
77052;SHT30;65980;44.898;8.602;2024-01-15T16:21:30;8.80;70.41
77052;SHT30;65980;44.898;8.602;2024-01-15T16:24:34;8.18;72.61
77052;SHT30;65980;44.898;8.602;2024-01-15T16:27:38;8.39;71.70
77052;SHT30;65980;44.898;8.602;2024-01-15T16:30:44;8.45;71.35
77052;SHT30;65980;44.898;8.602;2024-01-15T16:33:49;7.82;73.62
77052;SHT30;65980;44.898;8.602;2024-01-15T16:36:54;7.73;74.40
77052;SHT30;65980;44.898;8.602;2024-01-15T16:39:58;8.00;73.41
77052;SHT30;65980;44.898;8.602;2024-01-15T16:43:04;7.93;74.01
77052;SHT30;65980;44.898;8.602;2024-01-15T16:46:12;8.00;73.70
77052;SHT30;65980;44.898;8.602;2024-01-15T16:49:16;8.11;72.98
77052;SHT30;65980;44.898;8.602;2024-01-15T16:52:20;8.13;72.70
77052;SHT30;65980;44.898;8.602;2024-01-15T16:55:25;8.00;73.27
77052;SHT30;65980;44.898;8.602;2024-01-15T16:58:29;7.94;73.34
77052;SHT30;65980;44.898;8.602;2024-01-15T17:01:33;8.03;73.18
77052;SHT30;65980;44.898;8.602;2024-01-15T17:04:37;8.11;72.60
77052;SHT30;65980;44.898;8.602;2024-01-15T17:07:41;8.07;72.63
77052;SHT30;65980;44.898;8.602;2024-01-15T17:10:45;7.91;72.69
77052;SHT30;65980;44.898;8.602;2024-01-15T17:13:50;8.03;72.65
77052;SHT30;65980;44.898;8.602;2024-01-15T17:16:54;7.82;72.97
77052;SHT30;65980;44.898;8.602;2024-01-15T17:19:59;7.32;74.69
77052;SHT30;65980;44.898;8.602;2024-01-15T17:23:03;7.21;74.70
77052;SHT30;65980;44.898;8.602;2024-01-15T17:26:07;7.14;75.38
77052;SHT30;65980;44.898;8.602;2024-01-15T17:29:11;7.24;74.43
77052;SHT30;65980;44.898;8.602;2024-01-15T17:32:15;7.27;74.69
77052;SHT30;65980;44.898;8.602;2024-01-15T17:35:20;7.41;74.63
77052;SHT30;65980;44.898;8.602;2024-01-15T17:38:24;7.13;74.12
77052;SHT30;65980;44.898;8.602;2024-01-15T17:41:29;7.00;75.04
77052;SHT30;65980;44.898;8.602;2024-01-15T17:44:36;6.85;76.12
77052;SHT30;65980;44.898;8.602;2024-01-15T17:47:40;6.99;75.51
77052;SHT30;65980;44.898;8.602;2024-01-15T17:50:45;6.69;76.70
77052;SHT30;65980;44.898;8.602;2024-01-15T17:53:49;6.85;76.17
77052;SHT30;65980;44.898;8.602;2024-01-15T17:56:54;6.51;77.22
77052;SHT30;65980;44.898;8.602;2024-01-15T17:59:58;6.61;77.62
77052;SHT30;65980;44.898;8.602;2024-01-15T18:03:03;6.38;76.98
77052;SHT30;65980;44.898;8.602;2024-01-15T18:06:07;6.41;77.08
77052;SHT30;65980;44.898;8.602;2024-01-15T18:09:11;6.59;76.94
77052;SHT30;65980;44.898;8.602;2024-01-15T18:12:16;6.23;78.00
77052;SHT30;65980;44.898;8.602;2024-01-15T18:15:21;6.31;77.62
77052;SHT30;65980;44.898;8.602;2024-01-15T18:18:25;6.38;76.40
77052;SHT30;65980;44.898;8.602;2024-01-15T18:21:29;6.32;78.13
77052;SHT30;65980;44.898;8.602;2024-01-15T18:24:35;6.42;77.37
77052;SHT30;65980;44.898;8.602;2024-01-15T18:27:39;6.45;76.55
77052;SHT30;65980;44.898;8.602;2024-01-15T18:30:43;6.11;77.88
77052;SHT30;65980;44.898;8.602;2024-01-15T18:33:47;6.10;77.93
77052;SHT30;65980;44.898;8.602;2024-01-15T18:36:52;5.70;79.32
77052;SHT30;65980;44.898;8.602;2024-01-15T18:39:57;6.00;78.33
77052;SHT30;65980;44.898;8.602;2024-01-15T18:43:01;5.99;78.54
77052;SHT30;65980;44.898;8.602;2024-01-15T18:46:06;5.85;77.69
77052;SHT30;65980;44.898;8.602;2024-01-15T18:49:12;5.49;79.90
77052;SHT30;65980;44.898;8.602;2024-01-15T18:52:16;5.73;79.04
77052;SHT30;65980;44.898;8.602;2024-01-15T18:55:22;5.76;78.50
77052;SHT30;65980;44.898;8.602;2024-01-15T18:58:30;5.89;78.27
77052;SHT30;65980;44.898;8.602;2024-01-15T19:01:38;5.83;78.21
77052;SHT30;65980;44.898;8.602;2024-01-15T19:04:43;5.42;79.55
77052;SHT30;65980;44.898;8.602;2024-01-15T19:07:47;5.49;79.21
77052;SHT30;65980;44.898;8.602;2024-01-15T19:10:51;5.47;79.53
77052;SHT30;65980;44.898;8.602;2024-01-15T19:13:55;4.93;82.26
77052;SHT30;65980;44.898;8.602;2024-01-15T19:16:59;5.37;80.42
77052;SHT30;65980;44.898;8.602;2024-01-15T19:20:06;5.40;79.59
77052;SHT30;65980;44.898;8.602;2024-01-15T19:23:10;5.32;80.93
77052;SHT30;65980;44.898;8.602;2024-01-15T19:26:17;5.19;83.97
77052;SHT30;65980;44.898;8.602;2024-01-15T19:29:22;5.16;82.09
77052;SHT30;65980;44.898;8.602;2024-01-15T19:32:27;5.16;82.58
77052;SHT30;65980;44.898;8.602;2024-01-15T19:35:32;5.00;83.81
77052;SHT30;65980;44.898;8.602;2024-01-15T19:38:36;5.20;82.32
77052;SHT30;65980;44.898;8.602;2024-01-15T19:41:41;4.93;84.47
77052;SHT30;65980;44.898;8.602;2024-01-15T19:44:46;5.01;82.58
77052;SHT30;65980;44.898;8.602;2024-01-15T19:47:50;4.64;85.48
77052;SHT30;65980;44.898;8.602;2024-01-15T19:50:55;4.71;85.41
77052;SHT30;65980;44.898;8.602;2024-01-15T19:54:00;4.68;84.43
77052;SHT30;65980;44.898;8.602;2024-01-15T19:57:05;4.69;86.08
77052;SHT30;65980;44.898;8.602;2024-01-15T20:00:09;4.87;84.59
77052;SHT30;65980;44.898;8.602;2024-01-15T20:03:15;5.06;83.17
77052;SHT30;65980;44.898;8.602;2024-01-15T20:06:19;5.20;82.70
77052;SHT30;65980;44.898;8.602;2024-01-15T20:09:23;5.26;81.57
77052;SHT30;65980;44.898;8.602;2024-01-15T20:12:28;5.30;81.40
77052;SHT30;65980;44.898;8.602;2024-01-15T20:15:32;5.20;81.44
77052;SHT30;65980;44.898;8.602;2024-01-15T20:18:40;5.31;80.58
77052;SHT30;65980;44.898;8.602;2024-01-15T20:21:46;5.19;80.22
77052;SHT30;65980;44.898;8.602;2024-01-15T20:24:50;4.96;81.48
77052;SHT30;65980;44.898;8.602;2024-01-15T20:27:54;5.00;81.66
77052;SHT30;65980;44.898;8.602;2024-01-15T20:31:01;4.96;81.05
77052;SHT30;65980;44.898;8.602;2024-01-15T20:34:05;5.09;80.53
77052;SHT30;65980;44.898;8.602;2024-01-15T20:37:10;5.16;80.23